sensor_id;sensor_type;location;lat;lon;timestamp;temperature;humidity
5344;DHT22;2694;48.954;8.928;2024-01-30T00:00:15;0.20;99.90
5344;DHT22;2694;48.954;8.928;2024-01-30T00:02:42;0.20;99.90
5344;DHT22;2694;48.954;8.928;2024-01-30T00:05:11;0.20;99.90
5344;DHT22;2694;48.954;8.928;2024-01-30T00:07:40;0.10;99.90
5344;DHT22;2694;48.954;8.928;2024-01-30T00:10:07;0.00;99.90
5344;DHT22;2694;48.954;8.928;2024-01-30T00:12:34;0.00;99.90
5344;DHT22;2694;48.954;8.928;2024-01-30T00:15:01;0.00;99.90
5344;DHT22;2694;48.954;8.928;2024-01-30T00:17:29;0.00;99.90
5344;DHT22;2694;48.954;8.928;2024-01-30T00:19:56;0.10;99.90
5344;DHT22;2694;48.954;8.928;2024-01-30T00:22:23;0.00;99.90
5344;DHT22;2694;48.954;8.928;2024-01-30T00:24:51;0.00;99.90
5344;DHT22;2694;48.954;8.928;2024-01-30T00:27:18;0.00;99.90
5344;DHT22;2694;48.954;8.928;2024-01-30T00:29:45;0.00;99.90
5344;DHT22;2694;48.954;8.928;2024-01-30T00:32:12;0.10;99.90
5344;DHT22;2694;48.954;8.928;2024-01-30T00:34:39;0.10;99.90
5344;DHT22;2694;48.954;8.928;2024-01-30T00:37:06;0.10;99.90
5344;DHT22;2694;48.954;8.928;2024-01-30T00:39:33;0.00;99.90
5344;DHT22;2694;48.954;8.928;2024-01-30T00:42:01;0.00;99.90
5344;DHT22;2694;48.954;8.928;2024-01-30T00:44:28;-0.10;99.90
5344;DHT22;2694;48.954;8.928;2024-01-30T00:46:54;-0.10;99.90
5344;DHT22;2694;48.954;8.928;2024-01-30T00:49:21;-0.10;99.90
5344;DHT22;2694;48.954;8.928;2024-01-30T00:51:48;-0.10;99.90
5344;DHT22;2694;48.954;8.928;2024-01-30T00:54:15;-0.20;99.90
5344;DHT22;2694;48.954;8.928;2024-01-30T00:56:43;-0.20;99.90
5344;DHT22;2694;48.954;8.928;2024-01-30T00:59:11;-0.10;99.90
5344;DHT22;2694;48.954;8.928;2024-01-30T01:01:38;-0.10;99.90
5344;DHT22;2694;48.954;8.928;2024-01-30T01:04:05;-0.20;99.90
5344;DHT22;2694;48.954;8.928;2024-01-30T01:06:32;-0.20;99.90
5344;DHT22;2694;48.954;8.928;2024-01-30T01:08:59;-0.20;99.90
5344;DHT22;2694;48.954;8.928;2024-01-30T01:11:26;-0.10;99.90
5344;DHT22;2694;48.954;8.928;2024-01-30T01:13:53;-0.10;99.90
5344;DHT22;2694;48.954;8.928;2024-01-30T01:16:21;-0.20;99.90
5344;DHT22;2694;48.954;8.928;2024-01-30T01:18:48;-0.20;99.90
5344;DHT22;2694;48.954;8.928;2024-01-30T01:21:15;-0.20;99.90
5344;DHT22;2694;48.954;8.928;2024-01-30T01:23:42;-0.20;99.90
5344;DHT22;2694;48.954;8.928;2024-01-30T01:26:09;-0.20;99.90
5344;DHT22;2694;48.954;8.928;2024-01-30T01:28:36;-0.20;99.90
5344;DHT22;2694;48.954;8.928;2024-01-30T01:31:03;-0.30;99.90
5344;DHT22;2694;48.954;8.928;2024-01-30T01:33:32;-0.30;99.90
5344;DHT22;2694;48.954;8.928;2024-01-30T01:35:59;-0.30;99.90
5344;DHT22;2694;48.954;8.928;2024-01-30T01:38:28;-0.30;99.90
5344;DHT22;2694;48.954;8.928;2024-01-30T01:40:55;-0.30;99.90
5344;DHT22;2694;48.954;8.928;2024-01-30T01:43:21;-0.40;99.90
5344;DHT22;2694;48.954;8.928;2024-01-30T01:45:48;-0.40;99.90
5344;DHT22;2694;48.954;8.928;2024-01-30T01:48:15;-0.50;99.90
5344;DHT22;2694;48.954;8.928;2024-01-30T01:50:44;-0.50;99.90
5344;DHT22;2694;48.954;8.928;2024-01-30T01:53:12;-0.50;99.90
5344;DHT22;2694;48.954;8.928;2024-01-30T01:55:39;-0.60;99.90
5344;DHT22;2694;48.954;8.928;2024-01-30T01:58:07;-0.50;99.90
5344;DHT22;2694;48.954;8.928;2024-01-30T02:00:36;-0.40;99.90
5344;DHT22;2694;48.954;8.928;2024-01-30T02:03:05;-0.40;99.90
5344;DHT22;2694;48.954;8.928;2024-01-30T02:05:33;-0.50;99.90
5344;DHT22;2694;48.954;8.928;2024-01-30T02:08:02;-0.50;99.90
5344;DHT22;2694;48.954;8.928;2024-01-30T02:10:29;-0.50;99.90
5344;DHT22;2694;48.954;8.928;2024-01-30T02:12:56;-0.60;99.90
5344;DHT22;2694;48.954;8.928;2024-01-30T02:15:23;-0.60;99.90
5344;DHT22;2694;48.954;8.928;2024-01-30T02:17:50;-0.60;99.90
5344;DHT22;2694;48.954;8.928;2024-01-30T02:20:17;-0.60;99.90
5344;DHT22;2694;48.954;8.928;2024-01-30T02:22:45;-0.60;99.90
5344;DHT22;2694;48.954;8.928;2024-01-30T02:25:13;-0.70;99.90
5344;DHT22;2694;48.954;8.928;2024-01-30T02:27:40;-0.70;99.90
5344;DHT22;2694;48.954;8.928;2024-01-30T02:30:07;-0.60;99.90
5344;DHT22;2694;48.954;8.928;2024-01-30T02:32:34;-0.70;99.90
5344;DHT22;2694;48.954;8.928;2024-01-30T02:35:01;-0.60;99.90
5344;DHT22;2694;48.954;8.928;2024-01-30T02:37:28;-0.60;99.90
5344;DHT22;2694;48.954;8.928;2024-01-30T02:39:56;-0.50;99.90
5344;DHT22;2694;48.954;8.928;2024-01-30T02:42:23;-0.40;99.90
5344;DHT22;2694;48.954;8.928;2024-01-30T02:44:50;-0.40;99.90
5344;DHT22;2694;48.954;8.928;2024-01-30T02:47:17;-0.60;99.90
5344;DHT22;2694;48.954;8.928;2024-01-30T02:49:43;-0.70;99.90
5344;DHT22;2694;48.954;8.928;2024-01-30T02:52:10;-0.70;99.90
5344;DHT22;2694;48.954;8.928;2024-01-30T02:54:37;-0.70;99.90
5344;DHT22;2694;48.954;8.928;2024-01-30T02:57:05;-0.70;99.90
5344;DHT22;2694;48.954;8.928;2024-01-30T02:59:32;-0.70;99.90
5344;DHT22;2694;48.954;8.928;2024-01-30T03:02:01;-0.80;99.90
5344;DHT22;2694;48.954;8.928;2024-01-30T03:04:28;-0.80;99.90
5344;DHT22;2694;48.954;8.928;2024-01-30T03:06:55;-0.80;99.90
5344;DHT22;2694;48.954;8.928;2024-01-30T03:09:22;-0.80;99.90
5344;DHT22;2694;48.954;8.928;2024-01-30T03:11:49;-0.80;99.90
5344;DHT22;2694;48.954;8.928;2024-01-30T03:14:17;-0.70;99.90
5344;DHT22;2694;48.954;8.928;2024-01-30T03:16:44;-0.60;99.90
5344;DHT22;2694;48.954;8.928;2024-01-30T03:19:11;-0.60;99.90
5344;DHT22;2694;48.954;8.928;2024-01-30T03:21:38;-0.70;99.90
5344;DHT22;2694;48.954;8.928;2024-01-30T03:24:05;-0.70;99.90
5344;DHT22;2694;48.954;8.928;2024-01-30T03:26:32;-0.80;99.90
5344;DHT22;2694;48.954;8.928;2024-01-30T03:28:59;-0.80;99.90
5344;DHT22;2694;48.954;8.928;2024-01-30T03:31:27;-0.80;99.90
5344;DHT22;2694;48.954;8.928;2024-01-30T03:33:54;-0.80;99.90
5344;DHT22;2694;48.954;8.928;2024-01-30T03:36:21;-0.90;99.90
5344;DHT22;2694;48.954;8.928;2024-01-30T03:38:47;-0.90;99.90
5344;DHT22;2694;48.954;8.928;2024-01-30T03:41:14;-0.90;99.90
5344;DHT22;2694;48.954;8.928;2024-01-30T03:43:41;-0.90;99.90
5344;DHT22;2694;48.954;8.928;2024-01-30T03:46:08;-1.00;99.90
5344;DHT22;2694;48.954;8.928;2024-01-30T03:48:36;-1.00;99.90
5344;DHT22;2694;48.954;8.928;2024-01-30T03:51:04;-1.00;99.90
5344;DHT22;2694;48.954;8.928;2024-01-30T03:53:31;-1.00;99.90
5344;DHT22;2694;48.954;8.928;2024-01-30T03:55:58;-1.00;99.90
5344;DHT22;2694;48.954;8.928;2024-01-30T03:58:24;-1.00;99.90
5344;DHT22;2694;48.954;8.928;2024-01-30T04:00:51;-1.00;99.90
5344;DHT22;2694;48.954;8.928;2024-01-30T04:03:18;-0.90;99.90
5344;DHT22;2694;48.954;8.928;2024-01-30T04:05:46;-1.00;99.90
5344;DHT22;2694;48.954;8.928;2024-01-30T04:08:13;-1.00;99.90
5344;DHT22;2694;48.954;8.928;2024-01-30T04:10:40;-1.00;99.90
5344;DHT22;2694;48.954;8.928;2024-01-30T04:13:07;-1.00;99.90
5344;DHT22;2694;48.954;8.928;2024-01-30T04:15:33;-1.00;99.90
5344;DHT22;2694;48.954;8.928;2024-01-30T04:18:00;-1.00;99.90
5344;DHT22;2694;48.954;8.928;2024-01-30T04:20:27;-1.10;99.90
5344;DHT22;2694;48.954;8.928;2024-01-30T04:22:55;-1.10;99.90
5344;DHT22;2694;48.954;8.928;2024-01-30T04:25:22;-1.10;99.90
5344;DHT22;2694;48.954;8.928;2024-01-30T04:27:49;-1.10;99.90
5344;DHT22;2694;48.954;8.928;2024-01-30T04:30:16;-1.20;99.90
5344;DHT22;2694;48.954;8.928;2024-01-30T04:32:43;-1.20;99.90
5344;DHT22;2694;48.954;8.928;2024-01-30T04:35:10;-1.10;99.90
5344;DHT22;2694;48.954;8.928;2024-01-30T04:37:37;-1.10;99.90
5344;DHT22;2694;48.954;8.928;2024-01-30T04:40:06;-1.20;99.90
5344;DHT22;2694;48.954;8.928;2024-01-30T04:42:33;-1.20;99.90
5344;DHT22;2694;48.954;8.928;2024-01-30T04:45:00;-1.30;99.90
5344;DHT22;2694;48.954;8.928;2024-01-30T04:47:27;-1.20;99.90
5344;DHT22;2694;48.954;8.928;2024-01-30T04:49:55;-1.20;99.90
5344;DHT22;2694;48.954;8.928;2024-01-30T04:52:22;-1.20;99.90
5344;DHT22;2694;48.954;8.928;2024-01-30T04:54:48;-1.30;99.90
5344;DHT22;2694;48.954;8.928;2024-01-30T04:57:17;-1.20;99.90
5344;DHT22;2694;48.954;8.928;2024-01-30T04:59:43;-1.20;99.90
5344;DHT22;2694;48.954;8.928;2024-01-30T05:02:10;-1.10;99.90
5344;DHT22;2694;48.954;8.928;2024-01-30T05:04:37;-1.20;99.90
5344;DHT22;2694;48.954;8.928;2024-01-30T05:07:04;-1.20;99.90
5344;DHT22;2694;48.954;8.928;2024-01-30T05:09:31;-1.30;99.90
5344;DHT22;2694;48.954;8.928;2024-01-30T05:11:58;-1.30;99.90
5344;DHT22;2694;48.954;8.928;2024-01-30T05:14:26;-1.40;99.90
5344;DHT22;2694;48.954;8.928;2024-01-30T05:16:53;-1.40;99.90
5344;DHT22;2694;48.954;8.928;2024-01-30T05:19:20;-1.50;99.90
5344;DHT22;2694;48.954;8.928;2024-01-30T05:21:48;-1.40;99.90
5344;DHT22;2694;48.954;8.928;2024-01-30T05:24:15;-1.40;99.90
5344;DHT22;2694;48.954;8.928;2024-01-30T05:26:42;-1.30;99.90
5344;DHT22;2694;48.954;8.928;2024-01-30T05:29:09;-1.30;99.90
5344;DHT22;2694;48.954;8.928;2024-01-30T05:31:37;-1.20;99.90
5344;DHT22;2694;48.954;8.928;2024-01-30T05:34:04;-1.20;99.90
5344;DHT22;2694;48.954;8.928;2024-01-30T05:36:32;-1.10;99.90
5344;DHT22;2694;48.954;8.928;2024-01-30T05:38:59;-1.10;99.90
5344;DHT22;2694;48.954;8.928;2024-01-30T05:41:26;-1.20;99.90
5344;DHT22;2694;48.954;8.928;2024-01-30T05:43:53;-1.20;99.90
5344;DHT22;2694;48.954;8.928;2024-01-30T05:46:20;-1.20;99.90
5344;DHT22;2694;48.954;8.928;2024-01-30T05:48:48;-1.30;99.90
5344;DHT22;2694;48.954;8.928;2024-01-30T05:51:15;-1.20;99.90
5344;DHT22;2694;48.954;8.928;2024-01-30T05:53:41;-1.10;99.90
5344;DHT22;2694;48.954;8.928;2024-01-30T05:56:08;-1.10;99.90
5344;DHT22;2694;48.954;8.928;2024-01-30T05:58:35;-1.10;99.90
5344;DHT22;2694;48.954;8.928;2024-01-30T06:01:03;-1.10;99.90
5344;DHT22;2694;48.954;8.928;2024-01-30T06:03:30;-1.20;99.90
5344;DHT22;2694;48.954;8.928;2024-01-30T06:05:58;-1.20;99.90
5344;DHT22;2694;48.954;8.928;2024-01-30T06:08:25;-1.30;99.90
5344;DHT22;2694;48.954;8.928;2024-01-30T06:10:51;-1.30;99.90
5344;DHT22;2694;48.954;8.928;2024-01-30T06:13:18;-1.50;99.90
5344;DHT22;2694;48.954;8.928;2024-01-30T06:15:45;-1.40;99.90
5344;DHT22;2694;48.954;8.928;2024-01-30T06:18:12;-1.30;99.90
5344;DHT22;2694;48.954;8.928;2024-01-30T06:20:39;-1.40;99.90
5344;DHT22;2694;48.954;8.928;2024-01-30T06:23:07;-1.30;99.90
5344;DHT22;2694;48.954;8.928;2024-01-30T06:25:34;-1.30;99.90
5344;DHT22;2694;48.954;8.928;2024-01-30T06:28:01;-1.30;99.90
5344;DHT22;2694;48.954;8.928;2024-01-30T06:30:28;-1.30;99.90
5344;DHT22;2694;48.954;8.928;2024-01-30T06:32:54;-1.30;99.90
5344;DHT22;2694;48.954;8.928;2024-01-30T06:35:22;-1.30;99.90
5344;DHT22;2694;48.954;8.928;2024-01-30T06:37:49;-1.20;99.90
5344;DHT22;2694;48.954;8.928;2024-01-30T06:40:17;-1.00;99.90
5344;DHT22;2694;48.954;8.928;2024-01-30T06:42:44;-1.10;99.90
5344;DHT22;2694;48.954;8.928;2024-01-30T06:45:10;-1.10;99.90
5344;DHT22;2694;48.954;8.928;2024-01-30T06:47:37;-1.20;99.90
5344;DHT22;2694;48.954;8.928;2024-01-30T06:50:05;-1.20;99.90
5344;DHT22;2694;48.954;8.928;2024-01-30T06:52:32;-1.20;99.90
5344;DHT22;2694;48.954;8.928;2024-01-30T06:54:59;-1.30;99.90
5344;DHT22;2694;48.954;8.928;2024-01-30T06:57:27;-1.10;99.90
5344;DHT22;2694;48.954;8.928;2024-01-30T06:59:56;-1.20;99.90
5344;DHT22;2694;48.954;8.928;2024-01-30T07:02:22;-1.30;99.90
5344;DHT22;2694;48.954;8.928;2024-01-30T07:04:50;-1.30;99.90
5344;DHT22;2694;48.954;8.928;2024-01-30T07:07:16;-1.30;99.90
5344;DHT22;2694;48.954;8.928;2024-01-30T07:09:44;-1.20;99.90
5344;DHT22;2694;48.954;8.928;2024-01-30T07:12:10;-1.10;99.90
5344;DHT22;2694;48.954;8.928;2024-01-30T07:14:39;-1.20;99.90
5344;DHT22;2694;48.954;8.928;2024-01-30T07:17:06;-1.10;99.90
5344;DHT22;2694;48.954;8.928;2024-01-30T07:19:33;-1.10;99.90
5344;DHT22;2694;48.954;8.928;2024-01-30T07:22:00;-1.10;99.90
5344;DHT22;2694;48.954;8.928;2024-01-30T07:24:27;-1.10;99.90
5344;DHT22;2694;48.954;8.928;2024-01-30T07:26:54;-1.10;99.90
5344;DHT22;2694;48.954;8.928;2024-01-30T07:29:21;-1.00;99.90
5344;DHT22;2694;48.954;8.928;2024-01-30T07:31:49;-1.00;99.90
5344;DHT22;2694;48.954;8.928;2024-01-30T07:34:16;-1.00;99.90
5344;DHT22;2694;48.954;8.928;2024-01-30T07:36:43;-0.90;99.90
5344;DHT22;2694;48.954;8.928;2024-01-30T07:39:10;-0.90;99.90
5344;DHT22;2694;48.954;8.928;2024-01-30T07:41:36;-0.80;99.90
5344;DHT22;2694;48.954;8.928;2024-01-30T07:44:03;-0.70;99.90
5344;DHT22;2694;48.954;8.928;2024-01-30T07:46:30;-0.80;99.90
5344;DHT22;2694;48.954;8.928;2024-01-30T07:48:59;-0.70;99.90
5344;DHT22;2694;48.954;8.928;2024-01-30T07:51:25;-0.70;99.90
5344;DHT22;2694;48.954;8.928;2024-01-30T07:53:54;-0.60;99.90
5344;DHT22;2694;48.954;8.928;2024-01-30T07:56:21;-0.60;99.90
5344;DHT22;2694;48.954;8.928;2024-01-30T07:58:47;-0.40;99.90
5344;DHT22;2694;48.954;8.928;2024-01-30T08:01:15;-0.30;99.90
5344;DHT22;2694;48.954;8.928;2024-01-30T08:03:41;-0.20;99.90
5344;DHT22;2694;48.954;8.928;2024-01-30T08:06:10;-0.10;99.90
5344;DHT22;2694;48.954;8.928;2024-01-30T08:08:37;-0.10;99.90
5344;DHT22;2694;48.954;8.928;2024-01-30T08:11:04;0.00;99.90
5344;DHT22;2694;48.954;8.928;2024-01-30T08:13:31;0.00;99.90
5344;DHT22;2694;48.954;8.928;2024-01-30T08:15:57;0.10;99.90
5344;DHT22;2694;48.954;8.928;2024-01-30T08:18:24;0.10;99.90
5344;DHT22;2694;48.954;8.928;2024-01-30T08:20:52;0.30;99.90
5344;DHT22;2694;48.954;8.928;2024-01-30T08:23:20;0.40;99.90
5344;DHT22;2694;48.954;8.928;2024-01-30T08:25:47;0.40;99.90
5344;DHT22;2694;48.954;8.928;2024-01-30T08:28:13;0.50;99.90
5344;DHT22;2694;48.954;8.928;2024-01-30T08:30:40;0.60;99.90
